Aberdeen Gardens, Washington
Current Conditions -  °F | °C
As of 5:53 PM on Friday 24 Oct 2014 (Local Time) from KHQM Reporting Station
Haze Haze  
Wind Chill: 53°   Ceiling: 7000
Heat Index: 53°   Visibility: 6mi
Dew Point: 49°   Wind: 14mph
Humidity: 86%   Direction: 70°ENE
Pressure: 29.83"   Gusts: NA
Location:  47.1445°N, 123.771°W
Report Text: KHQM 250053Z AUTO 07012KT 6SM BR BKN070 OVC085 12/09 A2983 RMK AO2 SLP105 T01170094
Loading
Personal Weather Stations






























Interactive Weather Map New forecast layout! Learn more

10-Day Weather Forecast

Advertisements
Track Severe Weather on mobile